WEATHER DATA

YESTERDAY
Time Temp. Dewp. Hum. Bar.
00:03 17.1 15.8 92 1011.1
00:12 17 15.7 92 1011.1
00:22 17 15.9 93 1011.2
00:33 17.1 16.1 94 1011.2
00:43 17.2 16.2 94 1011.3
00:53 17.2 16.2 94 1011.5
01:03 17.1 16.3 95 1011.7
01:13 17.2 16.4 95 1011.5
01:21 17.2 16.4 95 1011.5
01:32 17.2 16.4 95 1011.6
01:44 17.2 16.4 95 1011.6
01:55 17.1 16.1 94 1011.1
02:05 17 16 94 1011
02:14 16.9 16.1 95 1011
02:22 16.9 16.1 95 1011
02:32 16.9 16.1 95 1010.6
02:43 16.8 16 95 1010.4
02:52 16.7 16.1 96 1010.3
03:02 16.7 16.1 96 1010.2
03:12 16.6 16 96 1010.1
03:23 16.6 16 96 1010.1
03:33 16.6 16 96 1010.1
03:42 16.7 16.1 96 1010.2
03:53 16.7 16.1 96 1010.4
04:03 16.8 16 95 1010.6
04:13 16.8 16 95 1010.6
04:23 16.8 16 95 1010.7
04:33 16.8 16 95 1010.6
04:43 16.8 16 95 1010.4
04:53 16.7 15.9 95 1010.2
05:04 16.6 15.8 95 1010.1
05:13 16.5 15.7 95 1010
05:23 16.4 15.6 95 1010
05:33 16.4 15.8 96 1009.9
05:44 16.4 15.8 96 1009.9
05:54 16.4 15.8 96 1009.8
06:03 16.4 15.8 96 1009.8
06:14 16.4 15.8 96 1009.9
06:24 16.4 15.8 96 1009.9
06:34 16.4 15.8 96 1010
06:44 16.4 15.9 97 1010
06:54 16.4 15.9 97 1010.2
07:04 16.5 16 97 1010.4
07:14 16.6 16.1 97 1010.5
07:25 16.8 16.3 97 1010.6
07:35 16.9 16.4 97 1010.7
07:44 17 16.4 96 1010.8
07:54 17 16.4 96 1011
08:05 17.1 16.5 96 1011
08:15 17.1 16.3 95 1011
08:25 17.3 16.7 96 1011.2
08:35 17.5 16.7 95 1011.2
08:45 17.6 16.6 94 1011.2
08:55 17.8 16.5 92 1011.2
09:05 17.9 16.4 91 1011.2
09:15 18.1 16.6 91 1011.4
09:25 18.5 16.7 89 1011.2
09:35 18.9 16.3 85 1011.2
09:46 19.1 16.5 85 1011.2
09:56 19.3 16.5 84 1011.1
10:05 18.9 16.5 86 1011.1
10:15 18.9 16.5 86 1011.1
10:26 19 16.6 86 1011.1
10:36 19.2 16.8 86 1011.1
10:46 19.2 16.6 85 1011.1
10:56 19.4 16.6 84 1011.2
11:06 19.5 16.7 84 1011.1
11:16 19.9 16.7 82 1011.1
11:26 20.2 16.8 81 1011.1
11:36 20.7 16.9 79 1011.1
11:46 21 16.8 77 1011.2
11:56 20.9 16.3 75 1011.2
12:17 20.9 16.5 76 1011.1
12:26 20.9 16.7 77 1011.2
12:36 20.8 16.4 76 1011.2
12:47 20.8 16.6 77 1011.2
12:57 20.8 16.6 77 1011.2
13:07 20.8 16.6 77 1011.2
13:17 20.9 16.7 77 1011.3
13:27 21 16.8 77 1011.2
13:37 21.2 16.6 75 1011.1
13:47 21.4 16.8 75 1011.1
13:58 21.7 16.9 74 1011
14:07 21.6 16.8 74 1011
14:17 21.7 16.7 73 1010.8
14:27 21.6 16.6 73 1010.8
14:38 21.6 16.1 71 1010.7
14:48 22 16.7 72 1010.6
14:57 22.2 16.2 69 1010.6
15:08 22.3 16.1 68 1010.5
15:18 22.2 16.2 69 1010.4
15:28 22.2 16.2 69 1010.3
15:38 22.2 16 68 1010.4
15:48 22.1 16.2 69 1010.3
15:58 22 16.3 70 1010.4
16:08 22.1 16.4 70 1010.4
16:19 22 16.3 70 1010.3
16:38 22.3 16.6 70 1010.4
16:59 22.5 16.8 70 1010.3
17:09 22.6 16.9 70 1010.2
17:18 22.6 16.9 70 1010.1
17:29 22.3 16.8 71 1010.1
17:39 22.2 16.9 72 1010.1
17:49 22 16.9 73 1010.3
17:59 21.8 17 74 1010.4
18:09 21.8 17 74 1010.4
18:19 21.7 16.9 74 1010.5
18:39 21.3 16.3 73 1010.6
18:49 21.1 16.3 74 1010.6
18:59 20.8 16.6 77 1011
19:09 20.7 16.9 79 1011.1
19:20 20.7 16.9 79 1011.4
19:29 20.6 16.8 79 1011.7
19:39 20.5 16.7 79 1012
19:50 20.5 16.7 79 1012.1
20:00 20.6 16.8 79 1012.2
20:09 20.6 17 80 1012.2
20:20 20.4 16.8 80 1012.3
20:30 20.3 16.9 81 1012.4
20:40 20.3 17.1 82 1012.5
20:49 20.3 17.1 82 1012.5
21:00 20.3 17.3 83 1012.5
21:10 20.2 17.2 83 1012.6
21:20 20.1 17.1 83 1012.8
21:30 20.1 17.1 83 1012.8
21:40 20.1 17.1 83 1012.9
21:50 20 17.2 84 1012.9
22:00 20 17.2 84 1012.9
22:10 19.9 16.9 83 1013
22:20 19.7 17.1 85 1012.9
22:30 19.4 17 86 1013
22:41 19.3 16.9 86 1012.9
22:50 19.2 17 87 1012.8
23:00 18.9 16.9 88 1012.9
23:10 18.6 16.8 89 1013
23:21 18.5 17 91 1012.9
23:30 18.3 16.8 91 1012.9
23:40 18.3 17 92 1012.9
23:51 18.2 16.9 92 1012.9

DAY STATISTIC

2018-05-23
TEMPERATURE
AVERAGE
19.1
HIGH
22.6
17:09
LOW
16.4
05:23
PRESSURE
AVERAGE
1011.1
HIGH
1013.0
22:10
LOW
1009.8
05:54
DEWPOINT
AVERAGE
16.5
HIGH
17.3
21:00
LOW
15.6
05:23
HUMIDITY
AVERAGE
85
HIGH
97
06:44
LOW
68
15:08
TEMPERATURE (°C)
LOW
16.4
HIGH
22.6
AVERAGE
19.1
PRESSURE (hpa)
LOW
1009.8
HIGH
1013.0
AVERAGE
1011.1
DEVICE